sensor_id;sensor_type;location;lat;lon;timestamp;pressure;altitude;pressure_sealevel;temperature;humidity
34961;BME280;30789;52.030;7.110;2023-05-18T00:01:12;102005.34;;;7.49;64.80
34961;BME280;30789;52.030;7.110;2023-05-18T00:03:39;102005.53;;;7.44;65.62
34961;BME280;30789;52.030;7.110;2023-05-18T00:06:05;102012.66;;;7.36;65.95
34961;BME280;30789;52.030;7.110;2023-05-18T00:08:32;102007.50;;;7.35;65.96
34961;BME280;30789;52.030;7.110;2023-05-18T00:10:59;102013.72;;;7.23;66.09
34961;BME280;30789;52.030;7.110;2023-05-18T00:13:25;102003.06;;;7.22;66.56
34961;BME280;30789;52.030;7.110;2023-05-18T00:15:53;102008.34;;;7.27;66.60
34961;BME280;30789;52.030;7.110;2023-05-18T00:18:20;102003.34;;;7.29;66.30
34961;BME280;30789;52.030;7.110;2023-05-18T00:20:48;102009.47;;;7.34;65.69
34961;BME280;30789;52.030;7.110;2023-05-18T00:23:15;102014.09;;;7.42;64.78
34961;BME280;30789;52.030;7.110;2023-05-18T00:25:42;102006.06;;;7.37;65.26
34961;BME280;30789;52.030;7.110;2023-05-18T00:28:08;102010.91;;;7.32;66.06
34961;BME280;30789;52.030;7.110;2023-05-18T00:30:37;102009.34;;;7.22;66.73
34961;BME280;30789;52.030;7.110;2023-05-18T00:33:04;102003.50;;;7.32;66.21
34961;BME280;30789;52.030;7.110;2023-05-18T00:35:31;102004.81;;;7.26;66.52
34961;BME280;30789;52.030;7.110;2023-05-18T00:37:57;102012.63;;;7.07;66.98
34961;BME280;30789;52.030;7.110;2023-05-18T00:40:24;102009.44;;;7.05;67.18
34961;BME280;30789;52.030;7.110;2023-05-18T00:42:53;102011.84;;;7.07;67.31
34961;BME280;30789;52.030;7.110;2023-05-18T00:45:19;102008.31;;;6.97;67.50
34961;BME280;30789;52.030;7.110;2023-05-18T00:47:46;102016.69;;;7.10;67.29
34961;BME280;30789;52.030;7.110;2023-05-18T00:50:13;102011.84;;;7.07;66.86
34961;BME280;30789;52.030;7.110;2023-05-18T00:52:41;102018.28;;;7.11;67.08
34961;BME280;30789;52.030;7.110;2023-05-18T00:55:10;102008.31;;;7.06;67.62
34961;BME280;30789;52.030;7.110;2023-05-18T00:57:38;102006.53;;;7.02;67.90
34961;BME280;30789;52.030;7.110;2023-05-18T01:00:07;102010.59;;;6.95;68.65
34961;BME280;30789;52.030;7.110;2023-05-18T01:02:35;102012.56;;;6.86;68.05
34961;BME280;30789;52.030;7.110;2023-05-18T01:05:07;102009.84;;;6.78;68.62
34961;BME280;30789;52.030;7.110;2023-05-18T01:07:37;102011.81;;;6.69;69.30
34961;BME280;30789;52.030;7.110;2023-05-18T01:10:04;102010.81;;;6.73;68.85
34961;BME280;30789;52.030;7.110;2023-05-18T01:12:35;102014.53;;;6.69;69.00
34961;BME280;30789;52.030;7.110;2023-05-18T01:15:07;102015.03;;;6.71;69.29
34961;BME280;30789;52.030;7.110;2023-05-18T01:17:38;102015.84;;;6.63;69.41
34961;BME280;30789;52.030;7.110;2023-05-18T01:20:21;102028.59;;;6.50;69.77
34961;BME280;30789;52.030;7.110;2023-05-18T01:23:05;102023.59;;;6.52;70.54
34961;BME280;30789;52.030;7.110;2023-05-18T01:25:45;102024.75;;;6.51;70.40
34961;BME280;30789;52.030;7.110;2023-05-18T01:28:16;102023.28;;;6.45;70.53
34961;BME280;30789;52.030;7.110;2023-05-18T01:30:43;102016.84;;;6.50;69.65
34961;BME280;30789;52.030;7.110;2023-05-18T01:33:12;102018.75;;;6.41;70.32
34961;BME280;30789;52.030;7.110;2023-05-18T01:35:39;102017.66;;;6.42;70.53
34961;BME280;30789;52.030;7.110;2023-05-18T01:38:12;102021.19;;;6.51;70.07
34961;BME280;30789;52.030;7.110;2023-05-18T01:40:44;102020.53;;;6.45;70.57
34961;BME280;30789;52.030;7.110;2023-05-18T01:43:17;102025.25;;;6.28;71.16
34961;BME280;30789;52.030;7.110;2023-05-18T01:45:47;102024.09;;;6.37;70.43
34961;BME280;30789;52.030;7.110;2023-05-18T01:48:19;102023.00;;;6.30;70.33
34961;BME280;30789;52.030;7.110;2023-05-18T01:50:51;102025.38;;;6.23;70.28
34961;BME280;30789;52.030;7.110;2023-05-18T01:53:24;102023.63;;;6.27;71.13
34961;BME280;30789;52.030;7.110;2023-05-18T01:55:53;102027.34;;;6.22;71.36
34961;BME280;30789;52.030;7.110;2023-05-18T01:58:22;102028.63;;;6.08;71.88
34961;BME280;30789;52.030;7.110;2023-05-18T02:00:50;102030.06;;;6.14;71.95
34961;BME280;30789;52.030;7.110;2023-05-18T02:03:17;102032.47;;;6.15;71.92
34961;BME280;30789;52.030;7.110;2023-05-18T02:05:44;102029.75;;;6.07;72.21
34961;BME280;30789;52.030;7.110;2023-05-18T02:08:10;102029.91;;;6.02;71.90
34961;BME280;30789;52.030;7.110;2023-05-18T02:10:37;102030.84;;;5.89;72.30
34961;BME280;30789;52.030;7.110;2023-05-18T02:13:03;102030.63;;;5.77;73.51
34961;BME280;30789;52.030;7.110;2023-05-18T02:15:31;102033.13;;;5.87;72.75
34961;BME280;30789;52.030;7.110;2023-05-18T02:17:57;102035.03;;;5.86;72.83
34961;BME280;30789;52.030;7.110;2023-05-18T02:20:24;102034.19;;;5.77;73.59
34961;BME280;30789;52.030;7.110;2023-05-18T02:22:50;102037.88;;;5.73;73.79
34961;BME280;30789;52.030;7.110;2023-05-18T02:25:17;102040.91;;;5.63;73.43
34961;BME280;30789;52.030;7.110;2023-05-18T02:27:43;102030.00;;;5.71;73.77
34961;BME280;30789;52.030;7.110;2023-05-18T02:30:11;102035.47;;;5.80;73.07
34961;BME280;30789;52.030;7.110;2023-05-18T02:32:39;102033.38;;;5.77;73.49
34961;BME280;30789;52.030;7.110;2023-05-18T02:35:07;102035.63;;;5.66;73.44
34961;BME280;30789;52.030;7.110;2023-05-18T02:37:34;102028.03;;;5.63;72.70
34961;BME280;30789;52.030;7.110;2023-05-18T02:40:05;102027.38;;;5.49;73.46
34961;BME280;30789;52.030;7.110;2023-05-18T02:42:32;102025.81;;;5.65;73.60
34961;BME280;30789;52.030;7.110;2023-05-18T02:44:58;102030.91;;;5.58;73.33
34961;BME280;30789;52.030;7.110;2023-05-18T02:47:26;102035.28;;;5.59;73.79
34961;BME280;30789;52.030;7.110;2023-05-18T02:49:54;102032.69;;;5.63;73.38
34961;BME280;30789;52.030;7.110;2023-05-18T02:52:20;102038.03;;;5.59;73.82
34961;BME280;30789;52.030;7.110;2023-05-18T02:54:47;102035.59;;;5.58;73.77
34961;BME280;30789;52.030;7.110;2023-05-18T02:57:14;102034.47;;;5.59;73.83
34961;BME280;30789;52.030;7.110;2023-05-18T02:59:40;102044.25;;;5.51;74.26
34961;BME280;30789;52.030;7.110;2023-05-18T03:02:07;102034.09;;;5.43;74.23
34961;BME280;30789;52.030;7.110;2023-05-18T03:04:34;102032.84;;;5.49;73.95
34961;BME280;30789;52.030;7.110;2023-05-18T03:07:03;102030.09;;;5.41;73.61
34961;BME280;30789;52.030;7.110;2023-05-18T03:09:32;102035.19;;;5.33;73.71
34961;BME280;30789;52.030;7.110;2023-05-18T03:11:58;102034.75;;;5.40;74.53
34961;BME280;30789;52.030;7.110;2023-05-18T03:14:25;102032.75;;;5.23;74.30
34961;BME280;30789;52.030;7.110;2023-05-18T03:16:51;102034.69;;;5.23;75.17
34961;BME280;30789;52.030;7.110;2023-05-18T03:19:21;102035.19;;;5.33;74.68
34961;BME280;30789;52.030;7.110;2023-05-18T03:21:48;102033.59;;;5.32;74.78
34961;BME280;30789;52.030;7.110;2023-05-18T03:24:16;102036.00;;;5.34;74.70
34961;BME280;30789;52.030;7.110;2023-05-18T03:26:42;102033.09;;;5.30;74.29
34961;BME280;30789;52.030;7.110;2023-05-18T03:29:09;102036.63;;;5.22;74.62
34961;BME280;30789;52.030;7.110;2023-05-18T03:31:37;102025.50;;;5.19;74.97
34961;BME280;30789;52.030;7.110;2023-05-18T03:34:04;102029.38;;;5.18;75.03
34961;BME280;30789;52.030;7.110;2023-05-18T03:36:30;102032.44;;;5.25;74.80
34961;BME280;30789;52.030;7.110;2023-05-18T03:38:57;102028.69;;;5.12;74.66
34961;BME280;30789;52.030;7.110;2023-05-18T03:41:24;102033.06;;;5.22;75.28
34961;BME280;30789;52.030;7.110;2023-05-18T03:43:51;102037.72;;;5.21;75.07
34961;BME280;30789;52.030;7.110;2023-05-18T03:46:17;102027.47;;;5.27;74.52
34961;BME280;30789;52.030;7.110;2023-05-18T03:48:44;102036.75;;;5.17;74.59
34961;BME280;30789;52.030;7.110;2023-05-18T03:51:10;102031.59;;;5.16;74.29
34961;BME280;30789;52.030;7.110;2023-05-18T03:53:37;102040.00;;;5.19;74.81
34961;BME280;30789;52.030;7.110;2023-05-18T03:56:05;102041.72;;;5.15;74.31
34961;BME280;30789;52.030;7.110;2023-05-18T03:58:33;102042.72;;;5.19;74.60
34961;BME280;30789;52.030;7.110;2023-05-18T04:00:59;102046.88;;;5.17;74.35
34961;BME280;30789;52.030;7.110;2023-05-18T04:03:26;102049.91;;;5.15;73.52
34961;BME280;30789;52.030;7.110;2023-05-18T04:05:54;102053.03;;;5.22;73.19
34961;BME280;30789;52.030;7.110;2023-05-18T04:08:21;102045.97;;;5.30;73.60
34961;BME280;30789;52.030;7.110;2023-05-18T04:10:49;102046.94;;;5.34;73.32
34961;BME280;30789;52.030;7.110;2023-05-18T04:13:16;102044.22;;;5.34;73.51
34961;BME280;30789;52.030;7.110;2023-05-18T04:15:44;102048.38;;;5.32;73.88
34961;BME280;30789;52.030;7.110;2023-05-18T04:18:12;102039.19;;;5.27;74.11
34961;BME280;30789;52.030;7.110;2023-05-18T04:20:39;102041.94;;;5.27;73.89
34961;BME280;30789;52.030;7.110;2023-05-18T04:23:06;102040.97;;;5.32;73.47
34961;BME280;30789;52.030;7.110;2023-05-18T04:25:34;102045.66;;;5.40;73.51
34961;BME280;30789;52.030;7.110;2023-05-18T04:28:04;102046.59;;;5.27;74.41
34961;BME280;30789;52.030;7.110;2023-05-18T04:30:31;102053.03;;;5.22;74.17
34961;BME280;30789;52.030;7.110;2023-05-18T04:32:59;102063.75;;;5.19;74.86
34961;BME280;30789;52.030;7.110;2023-05-18T04:35:28;102060.75;;;5.29;74.83
34961;BME280;30789;52.030;7.110;2023-05-18T04:37:55;102062.38;;;5.39;74.42
34961;BME280;30789;52.030;7.110;2023-05-18T04:40:22;102061.44;;;5.43;74.03
34961;BME280;30789;52.030;7.110;2023-05-18T04:42:49;102062.13;;;5.49;73.95
34961;BME280;30789;52.030;7.110;2023-05-18T04:45:16;102072.56;;;5.55;73.50
34961;BME280;30789;52.030;7.110;2023-05-18T04:47:44;102071.16;;;5.66;73.22
34961;BME280;30789;52.030;7.110;2023-05-18T04:50:14;102086.97;;;5.78;73.54
34961;BME280;30789;52.030;7.110;2023-05-18T04:52:41;102076.69;;;5.75;74.30
34961;BME280;30789;52.030;7.110;2023-05-18T04:55:13;102077.13;;;5.77;74.04
34961;BME280;30789;52.030;7.110;2023-05-18T04:57:40;102082.28;;;5.78;74.33
34961;BME280;30789;52.030;7.110;2023-05-18T05:00:09;102081.06;;;5.84;73.78
34961;BME280;30789;52.030;7.110;2023-05-18T05:02:37;102085.75;;;5.92;73.77
34961;BME280;30789;52.030;7.110;2023-05-18T05:05:04;102073.69;;;6.02;73.38
34961;BME280;30789;52.030;7.110;2023-05-18T05:07:32;102083.53;;;6.11;72.77
34961;BME280;30789;52.030;7.110;2023-05-18T05:09:58;102079.19;;;6.19;72.86
34961;BME280;30789;52.030;7.110;2023-05-18T05:12:25;102087.56;;;6.31;71.95
34961;BME280;30789;52.030;7.110;2023-05-18T05:14:51;102088.53;;;6.43;71.11
34961;BME280;30789;52.030;7.110;2023-05-18T05:17:18;102086.59;;;6.52;71.02
34961;BME280;30789;52.030;7.110;2023-05-18T05:19:44;102087.22;;;6.66;69.88
34961;BME280;30789;52.030;7.110;2023-05-18T05:22:11;102084.16;;;6.59;70.77
34961;BME280;30789;52.030;7.110;2023-05-18T05:24:39;102083.50;;;6.71;70.50
34961;BME280;30789;52.030;7.110;2023-05-18T05:27:05;102084.13;;;6.85;70.53
34961;BME280;30789;52.030;7.110;2023-05-18T05:29:32;102087.34;;;6.95;70.51
34961;BME280;30789;52.030;7.110;2023-05-18T05:31:58;102087.78;;;7.06;69.72
34961;BME280;30789;52.030;7.110;2023-05-18T05:34:24;102083.91;;;7.07;70.32
34961;BME280;30789;52.030;7.110;2023-05-18T05:36:51;102087.28;;;7.13;70.31
34961;BME280;30789;52.030;7.110;2023-05-18T05:39:17;102086.25;;;7.26;68.04
34961;BME280;30789;52.030;7.110;2023-05-18T05:41:45;102092.06;;;7.24;69.05
34961;BME280;30789;52.030;7.110;2023-05-18T05:44:12;102086.25;;;7.26;69.24
34961;BME280;30789;52.030;7.110;2023-05-18T05:46:38;102083.63;;;7.38;70.18
34961;BME280;30789;52.030;7.110;2023-05-18T05:49:05;102089.72;;;7.52;68.15
34961;BME280;30789;52.030;7.110;2023-05-18T05:51:31;102086.78;;;7.57;68.39
34961;BME280;30789;52.030;7.110;2023-05-18T05:53:58;102083.66;;;7.67;67.63
34961;BME280;30789;52.030;7.110;2023-05-18T05:56:24;102083.63;;;7.75;66.88
34961;BME280;30789;52.030;7.110;2023-05-18T05:58:52;102089.44;;;7.74;66.10
34961;BME280;30789;52.030;7.110;2023-05-18T06:01:18;102093.44;;;7.85;65.88
34961;BME280;30789;52.030;7.110;2023-05-18T06:03:45;102099.44;;;7.78;66.42
34961;BME280;30789;52.030;7.110;2023-05-18T06:06:12;102100.44;;;7.94;65.16
34961;BME280;30789;52.030;7.110;2023-05-18T06:08:39;102101.41;;;7.98;65.42
34961;BME280;30789;52.030;7.110;2023-05-18T06:11:06;102105.91;;;8.03;65.09
34961;BME280;30789;52.030;7.110;2023-05-18T06:13:32;102099.06;;;8.09;65.78
34961;BME280;30789;52.030;7.110;2023-05-18T06:16:00;102096.09;;;8.22;65.51
34961;BME280;30789;52.030;7.110;2023-05-18T06:18:27;102099.59;;;8.31;63.70
34961;BME280;30789;52.030;7.110;2023-05-18T06:20:53;102098.56;;;8.36;63.53
34961;BME280;30789;52.030;7.110;2023-05-18T06:23:21;102099.06;;;8.38;63.04
34961;BME280;30789;52.030;7.110;2023-05-18T06:25:47;102101.28;;;8.44;64.13
34961;BME280;30789;52.030;7.110;2023-05-18T06:28:14;102098.84;;;8.43;63.30
34961;BME280;30789;52.030;7.110;2023-05-18T06:30:40;102104.31;;;8.63;61.82
34961;BME280;30789;52.030;7.110;2023-05-18T06:33:08;102106.72;;;8.65;62.09
34961;BME280;30789;52.030;7.110;2023-05-18T06:35:35;102108.59;;;8.73;61.37
34961;BME280;30789;52.030;7.110;2023-05-18T06:38:01;102107.94;;;8.76;60.90
34961;BME280;30789;52.030;7.110;2023-05-18T06:40:28;102095.91;;;8.81;59.90
34961;BME280;30789;52.030;7.110;2023-05-18T06:42:54;102100.94;;;8.79;60.07
34961;BME280;30789;52.030;7.110;2023-05-18T06:45:21;102102.81;;;8.87;60.11
34961;BME280;30789;52.030;7.110;2023-05-18T06:47:47;102102.94;;;8.90;60.07
34961;BME280;30789;52.030;7.110;2023-05-18T06:50:15;102106.47;;;8.91;60.75
34961;BME280;30789;52.030;7.110;2023-05-18T06:52:43;102106.41;;;8.99;60.31
34961;BME280;30789;52.030;7.110;2023-05-18T06:55:09;102106.31;;;9.08;59.98
34961;BME280;30789;52.030;7.110;2023-05-18T06:57:36;102106.56;;;9.15;59.49
34961;BME280;30789;52.030;7.110;2023-05-18T07:00:03;102104.88;;;9.22;60.02
34961;BME280;30789;52.030;7.110;2023-05-18T07:02:31;102108.19;;;9.28;59.61
34961;BME280;30789;52.030;7.110;2023-05-18T07:04:57;102108.19;;;9.28;59.12
34961;BME280;30789;52.030;7.110;2023-05-18T07:07:26;102104.19;;;9.37;59.26
34961;BME280;30789;52.030;7.110;2023-05-18T07:09:53;102108.66;;;9.42;59.07
34961;BME280;30789;52.030;7.110;2023-05-18T07:12:19;102108.47;;;9.47;58.61
34961;BME280;30789;52.030;7.110;2023-05-18T07:14:46;102108.00;;;9.57;58.69
34961;BME280;30789;52.030;7.110;2023-05-18T07:17:13;102108.69;;;9.66;56.32
34961;BME280;30789;52.030;7.110;2023-05-18T07:19:39;102115.47;;;9.68;57.35
34961;BME280;30789;52.030;7.110;2023-05-18T07:22:06;102116.28;;;9.81;57.90
34961;BME280;30789;52.030;7.110;2023-05-18T07:24:34;102116.28;;;9.93;57.74
34961;BME280;30789;52.030;7.110;2023-05-18T07:27:00;102117.75;;;10.02;57.89
34961;BME280;30789;52.030;7.110;2023-05-18T07:29:27;102114.91;;;10.11;57.03
34961;BME280;30789;52.030;7.110;2023-05-18T07:31:53;102114.78;;;10.07;56.65
34961;BME280;30789;52.030;7.110;2023-05-18T07:34:20;102116.28;;;9.93;56.71
34961;BME280;30789;52.030;7.110;2023-05-18T07:36:47;102121.19;;;9.99;57.04
34961;BME280;30789;52.030;7.110;2023-05-18T07:39:13;102125.91;;;10.11;57.22
34961;BME280;30789;52.030;7.110;2023-05-18T07:41:44;102132.31;;;10.15;57.03
34961;BME280;30789;52.030;7.110;2023-05-18T07:44:11;102130.59;;;10.22;57.68
34961;BME280;30789;52.030;7.110;2023-05-18T07:46:38;102130.69;;;10.38;57.66
34961;BME280;30789;52.030;7.110;2023-05-18T07:49:04;102132.47;;;10.58;57.41
34961;BME280;30789;52.030;7.110;2023-05-18T07:51:31;102135.59;;;10.84;55.84
34961;BME280;30789;52.030;7.110;2023-05-18T07:53:58;102133.53;;;10.81;54.91
34961;BME280;30789;52.030;7.110;2023-05-18T07:56:24;102128.53;;;10.71;54.73
34961;BME280;30789;52.030;7.110;2023-05-18T07:58:52;102136.56;;;10.64;55.12
34961;BME280;30789;52.030;7.110;2023-05-18T08:01:19;102133.63;;;10.57;55.59
34961;BME280;30789;52.030;7.110;2023-05-18T08:03:46;102125.78;;;10.71;54.87
34961;BME280;30789;52.030;7.110;2023-05-18T08:06:12;102135.69;;;10.88;54.99
34961;BME280;30789;52.030;7.110;2023-05-18T08:08:39;102131.59;;;10.82;54.83
34961;BME280;30789;52.030;7.110;2023-05-18T08:11:05;102133.28;;;10.86;54.57
34961;BME280;30789;52.030;7.110;2023-05-18T08:13:32;102139.69;;;10.90;54.37
34961;BME280;30789;52.030;7.110;2023-05-18T08:16:00;102133.59;;;10.97;54.39
34961;BME280;30789;52.030;7.110;2023-05-18T08:18:26;102135.56;;;11.12;54.02
34961;BME280;30789;52.030;7.110;2023-05-18T08:20:53;102142.00;;;11.16;53.94
34961;BME280;30789;52.030;7.110;2023-05-18T08:23:20;102143.41;;;11.10;53.53
34961;BME280;30789;52.030;7.110;2023-05-18T08:25:46;102143.41;;;11.10;54.09
34961;BME280;30789;52.030;7.110;2023-05-18T08:28:13;102137.56;;;11.27;53.58
34961;BME280;30789;52.030;7.110;2023-05-18T08:30:39;102132.72;;;11.67;53.41
34961;BME280;30789;52.030;7.110;2023-05-18T08:33:07;102131.47;;;11.95;51.81
34961;BME280;30789;52.030;7.110;2023-05-18T08:35:34;102124.97;;;12.23;50.25
34961;BME280;30789;52.030;7.110;2023-05-18T08:38:00;102117.44;;;12.39;50.69
34961;BME280;30789;52.030;7.110;2023-05-18T08:40:32;102125.75;;;12.58;50.53
34961;BME280;30789;52.030;7.110;2023-05-18T08:43:02;102117.94;;;12.63;49.63
34961;BME280;30789;52.030;7.110;2023-05-18T08:45:35;102113.72;;;12.69;49.30
34961;BME280;30789;52.030;7.110;2023-05-18T08:48:06;102113.81;;;12.54;49.47
34961;BME280;30789;52.030;7.110;2023-05-18T08:50:34;102119.94;;;12.63;49.04
34961;BME280;30789;52.030;7.110;2023-05-18T08:53:04;102118.53;;;12.53;48.86
34961;BME280;30789;52.030;7.110;2023-05-18T08:55:31;102123.78;;;12.58;48.04
34961;BME280;30789;52.030;7.110;2023-05-18T08:58:01;102119.34;;;12.54;49.19
34961;BME280;30789;52.030;7.110;2023-05-18T09:00:28;102122.44;;;12.33;48.76
34961;BME280;30789;52.030;7.110;2023-05-18T09:02:55;102119.50;;;12.61;48.62
34961;BME280;30789;52.030;7.110;2023-05-18T09:05:23;102109.28;;;12.65;48.41
34961;BME280;30789;52.030;7.110;2023-05-18T09:07:50;102104.00;;;12.75;49.83
34961;BME280;30789;52.030;7.110;2023-05-18T09:10:17;102103.69;;;12.80;48.96
34961;BME280;30789;52.030;7.110;2023-05-18T09:12:45;102111.66;;;12.63;48.67
34961;BME280;30789;52.030;7.110;2023-05-18T09:15:13;102108.06;;;12.81;48.97
34961;BME280;30789;52.030;7.110;2023-05-18T09:17:40;102103.66;;;13.18;48.81
34961;BME280;30789;52.030;7.110;2023-05-18T09:20:07;102099.50;;;13.28;48.39
34961;BME280;30789;52.030;7.110;2023-05-18T09:22:35;102099.38;;;13.43;49.15
34961;BME280;30789;52.030;7.110;2023-05-18T09:25:05;102098.63;;;13.24;47.97
34961;BME280;30789;52.030;7.110;2023-05-18T09:27:33;102093.06;;;13.69;48.88
34961;BME280;30789;52.030;7.110;2023-05-18T09:29:59;102091.63;;;13.78;47.47
34961;BME280;30789;52.030;7.110;2023-05-18T09:32:26;102089.00;;;13.86;46.44
34961;BME280;30789;52.030;7.110;2023-05-18T09:34:53;102085.78;;;13.84;47.11
34961;BME280;30789;52.030;7.110;2023-05-18T09:37:21;102090.84;;;14.04;46.78
34961;BME280;30789;52.030;7.110;2023-05-18T09:39:58;102092.88;;;14.07;46.57
34961;BME280;30789;52.030;7.110;2023-05-18T09:42:34;102091.47;;;14.20;46.39
34961;BME280;30789;52.030;7.110;2023-05-18T09:45:01;102088.38;;;14.51;45.80
34961;BME280;30789;52.030;7.110;2023-05-18T09:47:28;102087.94;;;14.82;45.02
34961;BME280;30789;52.030;7.110;2023-05-18T09:49:55;102089.59;;;15.27;44.13
34961;BME280;30789;52.030;7.110;2023-05-18T09:52:22;102077.31;;;15.28;42.26
34961;BME280;30789;52.030;7.110;2023-05-18T09:54:57;102084.97;;;15.89;42.60
34961;BME280;30789;52.030;7.110;2023-05-18T09:57:25;102071.25;;;16.13;42.29
34961;BME280;30789;52.030;7.110;2023-05-18T09:59:54;102080.25;;;16.68;41.29
34961;BME280;30789;52.030;7.110;2023-05-18T10:02:23;102084.34;;;16.98;40.03
34961;BME280;30789;52.030;7.110;2023-05-18T10:04:50;102076.88;;;17.52;39.85
34961;BME280;30789;52.030;7.110;2023-05-18T10:07:17;102084.84;;;17.57;37.88
34961;BME280;30789;52.030;7.110;2023-05-18T10:09:44;102078.06;;;17.75;38.88
34961;BME280;30789;52.030;7.110;2023-05-18T10:12:13;102083.84;;;18.58;36.73
34961;BME280;30789;52.030;7.110;2023-05-18T10:14:42;102078.25;;;18.68;37.38
34961;BME280;30789;52.030;7.110;2023-05-18T10:17:10;102087.94;;;19.15;37.34
34961;BME280;30789;52.030;7.110;2023-05-18T10:19:39;102082.22;;;19.36;34.67
34961;BME280;30789;52.030;7.110;2023-05-18T10:22:06;102073.94;;;19.22;36.21
34961;BME280;30789;52.030;7.110;2023-05-18T10:24:34;102074.44;;;19.61;34.94
34961;BME280;30789;52.030;7.110;2023-05-18T10:27:08;102078.47;;;19.60;35.80
34961;BME280;30789;52.030;7.110;2023-05-18T10:29:36;102072.06;;;19.60;35.09
34961;BME280;30789;52.030;7.110;2023-05-18T10:32:04;102076.13;;;19.52;34.08
34961;BME280;30789;52.030;7.110;2023-05-18T10:34:31;102074.25;;;19.38;34.72
34961;BME280;30789;52.030;7.110;2023-05-18T10:37:00;102063.81;;;19.42;35.34
34961;BME280;30789;52.030;7.110;2023-05-18T10:39:28;102070.59;;;19.45;34.53
34961;BME280;30789;52.030;7.110;2023-05-18T10:41:56;102063.56;;;19.74;33.67
34961;BME280;30789;52.030;7.110;2023-05-18T10:44:24;102063.88;;;19.79;34.70
34961;BME280;30789;52.030;7.110;2023-05-18T10:46:52;102065.81;;;20.26;34.13
34961;BME280;30789;52.030;7.110;2023-05-18T10:49:20;102060.13;;;20.67;33.32
34961;BME280;30789;52.030;7.110;2023-05-18T10:51:52;102060.81;;;20.75;32.70
34961;BME280;30789;52.030;7.110;2023-05-18T10:54:20;102059.97;;;20.48;31.60
34961;BME280;30789;52.030;7.110;2023-05-18T10:56:50;102058.19;;;19.90;34.08
34961;BME280;30789;52.030;7.110;2023-05-18T10:59:17;102049.94;;;20.16;32.16
34961;BME280;30789;52.030;7.110;2023-05-18T11:01:45;102053.41;;;20.27;32.89
34961;BME280;30789;52.030;7.110;2023-05-18T11:04:14;102057.28;;;20.71;30.83
34961;BME280;30789;52.030;7.110;2023-05-18T11:06:41;102049.13;;;20.50;30.70
34961;BME280;30789;52.030;7.110;2023-05-18T11:09:08;102055.81;;;20.89;30.74
34961;BME280;30789;52.030;7.110;2023-05-18T11:11:54;102049.53;;;21.08;31.24
34961;BME280;30789;52.030;7.110;2023-05-18T11:14:25;102040.38;;;21.31;30.35
34961;BME280;30789;52.030;7.110;2023-05-18T11:16:52;102040.13;;;21.22;30.96
34961;BME280;30789;52.030;7.110;2023-05-18T11:19:23;102036.84;;;21.50;29.96
34961;BME280;30789;52.030;7.110;2023-05-18T11:21:51;102030.38;;;21.30;30.89
34961;BME280;30789;52.030;7.110;2023-05-18T11:24:23;102029.81;;;21.61;31.60
34961;BME280;30789;52.030;7.110;2023-05-18T11:26:51;102039.72;;;21.69;30.74
34961;BME280;30789;52.030;7.110;2023-05-18T11:29:23;102035.81;;;21.86;28.24
34961;BME280;30789;52.030;7.110;2023-05-18T11:31:50;102028.13;;;21.67;28.59
34961;BME280;30789;52.030;7.110;2023-05-18T11:34:50;102032.69;;;22.24;29.56
34961;BME280;30789;52.030;7.110;2023-05-18T11:37:46;102031.75;;;22.50;29.69
34961;BME280;30789;52.030;7.110;2023-05-18T11:40:45;102036.00;;;22.93;28.55
34961;BME280;30789;52.030;7.110;2023-05-18T11:43:18;102037.34;;;22.69;28.78
34961;BME280;30789;52.030;7.110;2023-05-18T11:45:52;102029.59;;;22.38;28.54
34961;BME280;30789;52.030;7.110;2023-05-18T11:48:20;102038.16;;;22.31;30.74
34961;BME280;30789;52.030;7.110;2023-05-18T11:50:48;102030.56;;;22.86;26.46
34961;BME280;30789;52.030;7.110;2023-05-18T11:53:15;102043.03;;;22.85;28.80
34961;BME280;30789;52.030;7.110;2023-05-18T11:55:42;102036.28;;;22.63;28.33
34961;BME280;30789;52.030;7.110;2023-05-18T11:58:10;102031.09;;;22.03;29.52
34961;BME280;30789;52.030;7.110;2023-05-18T12:00:43;102031.16;;;22.58;28.65
34961;BME280;30789;52.030;7.110;2023-05-18T12:03:11;102023.19;;;22.18;28.96
34961;BME280;30789;52.030;7.110;2023-05-18T12:05:38;102018.88;;;21.70;30.75
34961;BME280;30789;52.030;7.110;2023-05-18T12:08:10;102024.53;;;21.67;31.67
34961;BME280;30789;52.030;7.110;2023-05-18T12:10:37;102026.41;;;21.73;29.83
34961;BME280;30789;52.030;7.110;2023-05-18T12:13:04;102020.56;;;21.18;30.92
34961;BME280;30789;52.030;7.110;2023-05-18T12:15:31;102008.53;;;21.18;31.49
34961;BME280;30789;52.030;7.110;2023-05-18T12:17:58;102011.41;;;21.14;31.26
34961;BME280;30789;52.030;7.110;2023-05-18T12:20:25;102000.56;;;21.16;31.90
34961;BME280;30789;52.030;7.110;2023-05-18T12:22:53;102002.66;;;21.35;31.97
34961;BME280;30789;52.030;7.110;2023-05-18T12:25:23;102002.13;;;21.63;31.40
34961;BME280;30789;52.030;7.110;2023-05-18T12:27:50;101997.88;;;21.32;30.24
34961;BME280;30789;52.030;7.110;2023-05-18T12:30:19;101993.44;;;21.12;30.81
34961;BME280;30789;52.030;7.110;2023-05-18T12:32:48;101998.31;;;21.31;32.10
34961;BME280;30789;52.030;7.110;2023-05-18T12:35:16;102000.19;;;21.37;31.40
34961;BME280;30789;52.030;7.110;2023-05-18T12:37:42;101996.88;;;21.46;31.63
34961;BME280;30789;52.030;7.110;2023-05-18T12:40:10;101989.41;;;21.13;30.29
34961;BME280;30789;52.030;7.110;2023-05-18T12:42:38;101994.47;;;21.21;32.45
34961;BME280;30789;52.030;7.110;2023-05-18T12:45:06;101988.03;;;21.24;31.86
34961;BME280;30789;52.030;7.110;2023-05-18T12:47:39;101984.78;;;21.26;30.71
34961;BME280;30789;52.030;7.110;2023-05-18T12:50:07;101986.50;;;21.20;31.63
34961;BME280;30789;52.030;7.110;2023-05-18T12:52:34;101972.03;;;20.95;31.39
34961;BME280;30789;52.030;7.110;2023-05-18T12:55:00;101966.97;;;21.36;31.73
34961;BME280;30789;52.030;7.110;2023-05-18T12:57:28;101969.59;;;21.23;31.07
34961;BME280;30789;52.030;7.110;2023-05-18T12:59:56;101985.69;;;21.19;30.72